sensor_id;sensor_type;location;lat;lon;timestamp;P1;durP1;ratioP1;P2;durP2;ratioP2
15192;SDS011;7697;51.630;7.484;2023-05-14T00:04:01;4.03;;;3.72;;
15192;SDS011;7697;51.630;7.484;2023-05-14T00:09:05;4.75;;;4.07;;
15192;SDS011;7697;51.630;7.484;2023-05-14T00:14:07;4.45;;;4.03;;
15192;SDS011;7697;51.630;7.484;2023-05-14T00:19:09;4.82;;;4.43;;
15192;SDS011;7697;51.630;7.484;2023-05-14T00:24:12;5.35;;;4.80;;
15192;SDS011;7697;51.630;7.484;2023-05-14T00:29:14;4.70;;;4.30;;
15192;SDS011;7697;51.630;7.484;2023-05-14T00:34:15;5.25;;;3.92;;
15192;SDS011;7697;51.630;7.484;2023-05-14T00:39:19;3.80;;;3.50;;
15192;SDS011;7697;51.630;7.484;2023-05-14T00:44:20;3.90;;;3.60;;
15192;SDS011;7697;51.630;7.484;2023-05-14T00:49:22;5.03;;;3.90;;
15192;SDS011;7697;51.630;7.484;2023-05-14T00:54:26;4.50;;;4.10;;
15192;SDS011;7697;51.630;7.484;2023-05-14T00:59:29;4.20;;;3.80;;
15192;SDS011;7697;51.630;7.484;2023-05-14T01:04:30;4.97;;;4.50;;
15192;SDS011;7697;51.630;7.484;2023-05-14T01:09:37;5.18;;;4.57;;
15192;SDS011;7697;51.630;7.484;2023-05-14T01:14:44;4.20;;;3.90;;
15192;SDS011;7697;51.630;7.484;2023-05-14T01:19:54;4.68;;;4.28;;
15192;SDS011;7697;51.630;7.484;2023-05-14T01:24:58;3.60;;;3.30;;
15192;SDS011;7697;51.630;7.484;2023-05-14T01:30:02;4.25;;;3.85;;
15192;SDS011;7697;51.630;7.484;2023-05-14T01:35:09;4.30;;;3.90;;
15192;SDS011;7697;51.630;7.484;2023-05-14T01:40:13;4.95;;;3.50;;
15192;SDS011;7697;51.630;7.484;2023-05-14T01:45:15;4.18;;;3.63;;
15192;SDS011;7697;51.630;7.484;2023-05-14T01:50:17;5.75;;;4.10;;
15192;SDS011;7697;51.630;7.484;2023-05-14T01:55:20;4.32;;;3.92;;
15192;SDS011;7697;51.630;7.484;2023-05-14T02:00:23;4.28;;;3.88;;
15192;SDS011;7697;51.630;7.484;2023-05-14T02:05:25;4.03;;;3.63;;
15192;SDS011;7697;51.630;7.484;2023-05-14T02:10:28;4.18;;;3.78;;
15192;SDS011;7697;51.630;7.484;2023-05-14T02:15:30;5.53;;;4.57;;
15192;SDS011;7697;51.630;7.484;2023-05-14T02:20:31;5.43;;;4.93;;
15192;SDS011;7697;51.630;7.484;2023-05-14T02:25:34;6.00;;;4.60;;
15192;SDS011;7697;51.630;7.484;2023-05-14T02:30:38;5.57;;;4.88;;
15192;SDS011;7697;51.630;7.484;2023-05-14T02:35:39;5.85;;;5.35;;
15192;SDS011;7697;51.630;7.484;2023-05-14T02:40:42;5.18;;;4.68;;
15192;SDS011;7697;51.630;7.484;2023-05-14T02:45:44;4.75;;;4.18;;
15192;SDS011;7697;51.630;7.484;2023-05-14T02:50:47;5.30;;;4.80;;
15192;SDS011;7697;51.630;7.484;2023-05-14T02:55:51;6.35;;;4.70;;
15192;SDS011;7697;51.630;7.484;2023-05-14T03:00:53;5.45;;;4.95;;
15192;SDS011;7697;51.630;7.484;2023-05-14T03:05:55;5.72;;;5.22;;
15192;SDS011;7697;51.630;7.484;2023-05-14T03:10:58;6.07;;;5.47;;
15192;SDS011;7697;51.630;7.484;2023-05-14T03:16:00;5.82;;;5.32;;
15192;SDS011;7697;51.630;7.484;2023-05-14T03:21:02;6.47;;;5.88;;
15192;SDS011;7697;51.630;7.484;2023-05-14T03:26:05;5.88;;;5.28;;
15192;SDS011;7697;51.630;7.484;2023-05-14T03:31:07;6.15;;;5.55;;
15192;SDS011;7697;51.630;7.484;2023-05-14T03:36:09;6.28;;;5.68;;
15192;SDS011;7697;51.630;7.484;2023-05-14T03:41:12;6.07;;;5.57;;
15192;SDS011;7697;51.630;7.484;2023-05-14T03:46:13;4.90;;;4.43;;
15192;SDS011;7697;51.630;7.484;2023-05-14T03:51:15;5.63;;;5.13;;
15192;SDS011;7697;51.630;7.484;2023-05-14T03:56:18;4.85;;;4.45;;
15192;SDS011;7697;51.630;7.484;2023-05-14T04:01:20;5.13;;;4.60;;
15192;SDS011;7697;51.630;7.484;2023-05-14T04:06:22;5.40;;;4.90;;
15192;SDS011;7697;51.630;7.484;2023-05-14T04:11:25;5.38;;;4.88;;
15192;SDS011;7697;51.630;7.484;2023-05-14T04:16:26;5.65;;;5.05;;
15192;SDS011;7697;51.630;7.484;2023-05-14T04:21:28;5.97;;;5.38;;
15192;SDS011;7697;51.630;7.484;2023-05-14T04:26:32;4.93;;;4.43;;
15192;SDS011;7697;51.630;7.484;2023-05-14T04:31:36;5.40;;;4.90;;
15192;SDS011;7697;51.630;7.484;2023-05-14T04:36:38;5.07;;;4.57;;
15192;SDS011;7697;51.630;7.484;2023-05-14T04:41:42;4.68;;;4.28;;
15192;SDS011;7697;51.630;7.484;2023-05-14T04:46:43;5.20;;;4.70;;
15192;SDS011;7697;51.630;7.484;2023-05-14T04:51:45;7.43;;;4.90;;
15192;SDS011;7697;51.630;7.484;2023-05-14T04:56:48;5.72;;;5.22;;
15192;SDS011;7697;51.630;7.484;2023-05-14T05:01:51;5.57;;;5.07;;
15192;SDS011;7697;51.630;7.484;2023-05-14T05:07:03;7.50;;;5.97;;
15192;SDS011;7697;51.630;7.484;2023-05-14T05:12:07;6.70;;;6.10;;
15192;SDS011;7697;51.630;7.484;2023-05-14T05:17:09;7.85;;;7.15;;
15192;SDS011;7697;51.630;7.484;2023-05-14T05:22:12;9.73;;;8.73;;
15192;SDS011;7697;51.630;7.484;2023-05-14T05:27:15;8.10;;;7.30;;
15192;SDS011;7697;51.630;7.484;2023-05-14T05:32:16;8.40;;;7.60;;
15192;SDS011;7697;51.630;7.484;2023-05-14T05:37:18;8.57;;;7.78;;
15192;SDS011;7697;51.630;7.484;2023-05-14T05:42:21;10.95;;;9.85;;
15192;SDS011;7697;51.630;7.484;2023-05-14T05:47:23;10.13;;;8.93;;
15192;SDS011;7697;51.630;7.484;2023-05-14T05:52:25;10.20;;;8.63;;
15192;SDS011;7697;51.630;7.484;2023-05-14T05:57:29;9.73;;;8.73;;
15192;SDS011;7697;51.630;7.484;2023-05-14T06:02:30;9.07;;;8.18;;
15192;SDS011;7697;51.630;7.484;2023-05-14T06:07:32;8.40;;;7.70;;
15192;SDS011;7697;51.630;7.484;2023-05-14T06:12:36;9.70;;;8.80;;
15192;SDS011;7697;51.630;7.484;2023-05-14T06:17:37;8.90;;;8.10;;
15192;SDS011;7697;51.630;7.484;2023-05-14T06:22:39;10.95;;;8.88;;
15192;SDS011;7697;51.630;7.484;2023-05-14T06:27:42;8.80;;;7.93;;
15192;SDS011;7697;51.630;7.484;2023-05-14T06:32:44;9.93;;;8.93;;
15192;SDS011;7697;51.630;7.484;2023-05-14T06:37:46;9.02;;;8.23;;
15192;SDS011;7697;51.630;7.484;2023-05-14T06:42:49;7.65;;;6.95;;
15192;SDS011;7697;51.630;7.484;2023-05-14T06:47:51;8.93;;;7.13;;
15192;SDS011;7697;51.630;7.484;2023-05-14T06:52:52;9.18;;;6.93;;
15192;SDS011;7697;51.630;7.484;2023-05-14T06:57:55;6.82;;;6.20;;
15192;SDS011;7697;51.630;7.484;2023-05-14T07:02:57;8.93;;;7.60;;
15192;SDS011;7697;51.630;7.484;2023-05-14T07:07:59;7.90;;;7.10;;
15192;SDS011;7697;51.630;7.484;2023-05-14T07:13:02;6.38;;;5.85;;
15192;SDS011;7697;51.630;7.484;2023-05-14T07:18:05;7.32;;;5.85;;
15192;SDS011;7697;51.630;7.484;2023-05-14T07:23:07;6.60;;;6.00;;
15192;SDS011;7697;51.630;7.484;2023-05-14T07:28:10;6.00;;;5.43;;
15192;SDS011;7697;51.630;7.484;2023-05-14T07:33:12;7.03;;;6.00;;
15192;SDS011;7697;51.630;7.484;2023-05-14T07:38:13;5.55;;;5.05;;
15192;SDS011;7697;51.630;7.484;2023-05-14T07:43:17;5.97;;;5.38;;
15192;SDS011;7697;51.630;7.484;2023-05-14T07:48:19;6.00;;;5.28;;
15192;SDS011;7697;51.630;7.484;2023-05-14T07:53:22;6.50;;;5.43;;
15192;SDS011;7697;51.630;7.484;2023-05-14T07:58:26;6.28;;;5.25;;
15192;SDS011;7697;51.630;7.484;2023-05-14T08:03:28;6.55;;;4.43;;
15192;SDS011;7697;51.630;7.484;2023-05-14T08:08:30;4.55;;;3.90;;
15192;SDS011;7697;51.630;7.484;2023-05-14T08:13:33;4.22;;;3.83;;
15192;SDS011;7697;51.630;7.484;2023-05-14T08:18:35;3.88;;;3.58;;
15192;SDS011;7697;51.630;7.484;2023-05-14T08:23:37;4.45;;;3.60;;
15192;SDS011;7697;51.630;7.484;2023-05-14T08:28:40;2.70;;;2.50;;
15192;SDS011;7697;51.630;7.484;2023-05-14T08:33:42;3.58;;;2.50;;
15192;SDS011;7697;51.630;7.484;2023-05-14T08:38:43;2.40;;;2.20;;
15192;SDS011;7697;51.630;7.484;2023-05-14T08:43:49;2.95;;;2.65;;
15192;SDS011;7697;51.630;7.484;2023-05-14T08:48:59;3.45;;;2.20;;
15192;SDS011;7697;51.630;7.484;2023-05-14T08:54:07;2.50;;;2.30;;
15192;SDS011;7697;51.630;7.484;2023-05-14T08:59:15;2.30;;;2.10;;
15192;SDS011;7697;51.630;7.484;2023-05-14T09:04:18;3.60;;;2.83;;
15192;SDS011;7697;51.630;7.484;2023-05-14T09:09:22;2.40;;;2.20;;
15192;SDS011;7697;51.630;7.484;2023-05-14T09:14:25;2.50;;;2.30;;
15192;SDS011;7697;51.630;7.484;2023-05-14T09:19:27;3.08;;;2.10;;
15192;SDS011;7697;51.630;7.484;2023-05-14T09:24:29;2.00;;;1.80;;
15192;SDS011;7697;51.630;7.484;2023-05-14T09:29:32;2.20;;;2.00;;
15192;SDS011;7697;51.630;7.484;2023-05-14T09:34:34;1.88;;;1.77;;
15192;SDS011;7697;51.630;7.484;2023-05-14T09:39:37;2.08;;;1.65;;
15192;SDS011;7697;51.630;7.484;2023-05-14T09:44:40;1.80;;;1.70;;
15192;SDS011;7697;51.630;7.484;2023-05-14T09:49:42;2.00;;;1.80;;
15192;SDS011;7697;51.630;7.484;2023-05-14T09:54:45;1.70;;;1.60;;
15192;SDS011;7697;51.630;7.484;2023-05-14T09:59:48;1.65;;;1.50;;
15192;SDS011;7697;51.630;7.484;2023-05-14T10:04:51;2.03;;;1.90;;
15192;SDS011;7697;51.630;7.484;2023-05-14T10:09:58;1.77;;;1.67;;
15192;SDS011;7697;51.630;7.484;2023-05-14T10:15:05;2.47;;;2.00;;
15192;SDS011;7697;51.630;7.484;2023-05-14T10:20:14;2.47;;;2.28;;
15192;SDS011;7697;51.630;7.484;2023-05-14T10:25:16;2.50;;;2.30;;
15192;SDS011;7697;51.630;7.484;2023-05-14T10:30:21;2.20;;;2.00;;
15192;SDS011;7697;51.630;7.484;2023-05-14T10:35:23;2.33;;;2.03;;
15192;SDS011;7697;51.630;7.484;2023-05-14T10:40:26;2.53;;;1.67;;
15192;SDS011;7697;51.630;7.484;2023-05-14T10:45:29;1.80;;;1.70;;
15192;SDS011;7697;51.630;7.484;2023-05-14T10:50:33;1.98;;;1.77;;
15192;SDS011;7697;51.630;7.484;2023-05-14T10:55:35;1.80;;;1.70;;
15192;SDS011;7697;51.630;7.484;2023-05-14T11:00:39;1.92;;;1.73;;
15192;SDS011;7697;51.630;7.484;2023-05-14T11:05:41;2.30;;;1.77;;
15192;SDS011;7697;51.630;7.484;2023-05-14T11:10:45;3.65;;;1.90;;
15192;SDS011;7697;51.630;7.484;2023-05-14T11:15:48;3.05;;;1.80;;
15192;SDS011;7697;51.630;7.484;2023-05-14T11:20:50;2.00;;;1.80;;
15192;SDS011;7697;51.630;7.484;2023-05-14T11:25:52;2.08;;;1.95;;
15192;SDS011;7697;51.630;7.484;2023-05-14T11:30:57;2.58;;;1.67;;
15192;SDS011;7697;51.630;7.484;2023-05-14T11:35:58;2.38;;;1.75;;
15192;SDS011;7697;51.630;7.484;2023-05-14T11:41:00;1.80;;;1.70;;
15192;SDS011;7697;51.630;7.484;2023-05-14T11:46:05;1.58;;;1.48;;
15192;SDS011;7697;51.630;7.484;2023-05-14T11:51:07;3.72;;;1.90;;
15192;SDS011;7697;51.630;7.484;2023-05-14T11:56:09;1.70;;;1.60;;
15192;SDS011;7697;51.630;7.484;2023-05-14T12:01:14;1.90;;;1.55;;
15192;SDS011;7697;51.630;7.484;2023-05-14T12:06:16;1.75;;;1.65;;
15192;SDS011;7697;51.630;7.484;2023-05-14T12:11:19;1.52;;;1.42;;
15192;SDS011;7697;51.630;7.484;2023-05-14T12:16:22;1.80;;;1.70;;
15192;SDS011;7697;51.630;7.484;2023-05-14T12:21:25;1.40;;;1.30;;
15192;SDS011;7697;51.630;7.484;2023-05-14T12:26:27;1.65;;;1.42;;
15192;SDS011;7697;51.630;7.484;2023-05-14T12:31:34;1.63;;;1.52;;
15192;SDS011;7697;51.630;7.484;2023-05-14T12:36:36;1.67;;;1.58;;
15192;SDS011;7697;51.630;7.484;2023-05-14T12:41:38;1.85;;;1.60;;
15192;SDS011;7697;51.630;7.484;2023-05-14T12:46:41;1.60;;;1.50;;
15192;SDS011;7697;51.630;7.484;2023-05-14T12:51:43;2.00;;;1.73;;
15192;SDS011;7697;51.630;7.484;2023-05-14T12:56:46;1.88;;;1.77;;
15192;SDS011;7697;51.630;7.484;2023-05-14T13:01:49;1.85;;;1.75;;
15192;SDS011;7697;51.630;7.484;2023-05-14T13:06:50;1.65;;;1.55;;
15192;SDS011;7697;51.630;7.484;2023-05-14T13:11:53;2.10;;;1.90;;
15192;SDS011;7697;51.630;7.484;2023-05-14T13:16:56;1.55;;;1.45;;
15192;SDS011;7697;51.630;7.484;2023-05-14T13:21:58;1.70;;;1.60;;
15192;SDS011;7697;51.630;7.484;2023-05-14T13:27:03;1.63;;;1.50;;
15192;SDS011;7697;51.630;7.484;2023-05-14T13:32:07;1.65;;;1.55;;
15192;SDS011;7697;51.630;7.484;2023-05-14T13:37:09;2.00;;;1.90;;
15192;SDS011;7697;51.630;7.484;2023-05-14T13:42:11;2.00;;;1.90;;
15192;SDS011;7697;51.630;7.484;2023-05-14T13:47:14;1.83;;;1.67;;
15192;SDS011;7697;51.630;7.484;2023-05-14T13:52:16;1.52;;;1.42;;
15192;SDS011;7697;51.630;7.484;2023-05-14T13:57:18;1.70;;;1.60;;
15192;SDS011;7697;51.630;7.484;2023-05-14T14:02:22;2.15;;;1.35;;
15192;SDS011;7697;51.630;7.484;2023-05-14T14:07:23;1.55;;;1.45;;
15192;SDS011;7697;51.630;7.484;2023-05-14T14:12:25;1.42;;;1.33;;
15192;SDS011;7697;51.630;7.484;2023-05-14T14:17:30;1.70;;;1.60;;
15192;SDS011;7697;51.630;7.484;2023-05-14T14:22:33;1.83;;;1.60;;
15192;SDS011;7697;51.630;7.484;2023-05-14T14:27:36;1.88;;;1.60;;
15192;SDS011;7697;51.630;7.484;2023-05-14T14:32:40;1.30;;;1.20;;
15192;SDS011;7697;51.630;7.484;2023-05-14T14:37:43;1.45;;;1.35;;
15192;SDS011;7697;51.630;7.484;2023-05-14T14:42:48;1.48;;;1.38;;
15192;SDS011;7697;51.630;7.484;2023-05-14T14:47:51;1.60;;;1.50;;
15192;SDS011;7697;51.630;7.484;2023-05-14T14:53:33;2.17;;;1.60;;
15192;SDS011;7697;51.630;7.484;2023-05-14T14:58:36;1.60;;;1.50;;
15192;SDS011;7697;51.630;7.484;2023-05-14T15:03:42;2.03;;;1.88;;
15192;SDS011;7697;51.630;7.484;2023-05-14T15:08:47;1.77;;;1.67;;
15192;SDS011;7697;51.630;7.484;2023-05-14T15:13:49;1.77;;;1.55;;
15192;SDS011;7697;51.630;7.484;2023-05-14T15:18:52;1.58;;;1.48;;
15192;SDS011;7697;51.630;7.484;2023-05-14T15:23:54;1.80;;;1.70;;
15192;SDS011;7697;51.630;7.484;2023-05-14T15:28:56;2.60;;;2.17;;
15192;SDS011;7697;51.630;7.484;2023-05-14T15:33:59;2.42;;;2.10;;
15192;SDS011;7697;51.630;7.484;2023-05-14T15:39:01;2.10;;;1.88;;
15192;SDS011;7697;51.630;7.484;2023-05-14T15:44:03;2.05;;;1.60;;
15192;SDS011;7697;51.630;7.484;2023-05-14T15:49:06;2.10;;;1.90;;
15192;SDS011;7697;51.630;7.484;2023-05-14T15:54:08;1.90;;;1.80;;
15192;SDS011;7697;51.630;7.484;2023-05-14T15:59:10;1.70;;;1.60;;
15192;SDS011;7697;51.630;7.484;2023-05-14T16:04:14;1.90;;;1.80;;
15192;SDS011;7697;51.630;7.484;2023-05-14T16:09:16;1.90;;;1.70;;
15192;SDS011;7697;51.630;7.484;2023-05-14T16:14:19;1.67;;;1.50;;
15192;SDS011;7697;51.630;7.484;2023-05-14T16:19:23;1.73;;;1.63;;
15192;SDS011;7697;51.630;7.484;2023-05-14T16:24:24;2.28;;;1.50;;
15192;SDS011;7697;51.630;7.484;2023-05-14T16:29:26;1.40;;;1.30;;
15192;SDS011;7697;51.630;7.484;2023-05-14T16:34:30;1.70;;;1.55;;
15192;SDS011;7697;51.630;7.484;2023-05-14T16:39:31;1.80;;;1.70;;
15192;SDS011;7697;51.630;7.484;2023-05-14T16:44:33;1.80;;;1.70;;
15192;SDS011;7697;51.630;7.484;2023-05-14T16:49:36;2.35;;;2.15;;
15192;SDS011;7697;51.630;7.484;2023-05-14T16:54:38;2.85;;;2.00;;
15192;SDS011;7697;51.630;7.484;2023-05-14T16:59:40;1.85;;;1.75;;
15192;SDS011;7697;51.630;7.484;2023-05-14T17:04:43;1.80;;;1.70;;
15192;SDS011;7697;51.630;7.484;2023-05-14T17:09:45;1.70;;;1.60;;
15192;SDS011;7697;51.630;7.484;2023-05-14T17:14:46;1.50;;;1.40;;
15192;SDS011;7697;51.630;7.484;2023-05-14T17:19:50;2.13;;;1.92;;
15192;SDS011;7697;51.630;7.484;2023-05-14T17:24:51;2.10;;;1.90;;
15192;SDS011;7697;51.630;7.484;2023-05-14T17:29:53;2.15;;;1.95;;
15192;SDS011;7697;51.630;7.484;2023-05-14T17:34:56;2.00;;;1.80;;
15192;SDS011;7697;51.630;7.484;2023-05-14T17:39:58;1.48;;;1.38;;
15192;SDS011;7697;51.630;7.484;2023-05-14T17:45:00;2.13;;;1.90;;
15192;SDS011;7697;51.630;7.484;2023-05-14T17:50:03;1.70;;;1.60;;
15192;SDS011;7697;51.630;7.484;2023-05-14T17:55:06;1.88;;;1.70;;
15192;SDS011;7697;51.630;7.484;2023-05-14T18:00:08;2.78;;;1.50;;
15192;SDS011;7697;51.630;7.484;2023-05-14T18:05:12;1.77;;;1.60;;
15192;SDS011;7697;51.630;7.484;2023-05-14T18:10:14;1.70;;;1.60;;
15192;SDS011;7697;51.630;7.484;2023-05-14T18:15:16;2.08;;;1.88;;
15192;SDS011;7697;51.630;7.484;2023-05-14T18:20:20;1.60;;;1.50;;
15192;SDS011;7697;51.630;7.484;2023-05-14T18:25:22;3.55;;;1.80;;
15192;SDS011;7697;51.630;7.484;2023-05-14T18:30:24;1.65;;;1.55;;
15192;SDS011;7697;51.630;7.484;2023-05-14T18:35:27;2.47;;;1.88;;
15192;SDS011;7697;51.630;7.484;2023-05-14T18:40:29;2.30;;;2.10;;
15192;SDS011;7697;51.630;7.484;2023-05-14T18:45:31;2.10;;;2.00;;
15192;SDS011;7697;51.630;7.484;2023-05-14T18:50:34;2.75;;;2.00;;
15192;SDS011;7697;51.630;7.484;2023-05-14T18:55:36;2.00;;;1.80;;
15192;SDS011;7697;51.630;7.484;2023-05-14T19:00:38;1.98;;;1.63;;
15192;SDS011;7697;51.630;7.484;2023-05-14T19:05:42;1.70;;;1.60;;
15192;SDS011;7697;51.630;7.484;2023-05-14T19:10:43;1.73;;;1.60;;
15192;SDS011;7697;51.630;7.484;2023-05-14T19:15:45;2.30;;;1.77;;
15192;SDS011;7697;51.630;7.484;2023-05-14T19:20:48;1.83;;;1.73;;
15192;SDS011;7697;51.630;7.484;2023-05-14T19:25:50;2.40;;;2.20;;
15192;SDS011;7697;51.630;7.484;2023-05-14T19:30:52;2.08;;;1.88;;
15192;SDS011;7697;51.630;7.484;2023-05-14T19:35:57;2.47;;;2.08;;
15192;SDS011;7697;51.630;7.484;2023-05-14T19:40:59;2.17;;;1.98;;
15192;SDS011;7697;51.630;7.484;2023-05-14T19:46:01;2.38;;;2.17;;
15192;SDS011;7697;51.630;7.484;2023-05-14T19:51:04;1.98;;;1.85;;
15192;SDS011;7697;51.630;7.484;2023-05-14T19:56:05;2.38;;;2.17;;
15192;SDS011;7697;51.630;7.484;2023-05-14T20:01:08;2.50;;;2.10;;
15192;SDS011;7697;51.630;7.484;2023-05-14T20:06:12;1.95;;;1.80;;
15192;SDS011;7697;51.630;7.484;2023-05-14T20:11:14;3.10;;;1.75;;
15192;SDS011;7697;51.630;7.484;2023-05-14T20:16:17;4.35;;;2.10;;
15192;SDS011;7697;51.630;7.484;2023-05-14T20:21:20;2.28;;;2.08;;
15192;SDS011;7697;51.630;7.484;2023-05-14T20:26:22;2.05;;;1.90;;
15192;SDS011;7697;51.630;7.484;2023-05-14T20:31:24;2.33;;;1.98;;
15192;SDS011;7697;51.630;7.484;2023-05-14T20:36:28;2.10;;;1.98;;
15192;SDS011;7697;51.630;7.484;2023-05-14T20:41:30;2.15;;;1.95;;
15192;SDS011;7697;51.630;7.484;2023-05-14T20:46:32;2.10;;;1.90;;
15192;SDS011;7697;51.630;7.484;2023-05-14T20:51:35;2.53;;;1.75;;
15192;SDS011;7697;51.630;7.484;2023-05-14T20:56:38;2.08;;;1.88;;
15192;SDS011;7697;51.630;7.484;2023-05-14T21:01:42;2.58;;;2.08;;
15192;SDS011;7697;51.630;7.484;2023-05-14T21:06:48;2.20;;;2.00;;
15192;SDS011;7697;51.630;7.484;2023-05-14T21:11:50;2.25;;;1.90;;
15192;SDS011;7697;51.630;7.484;2023-05-14T21:16:55;2.22;;;2.03;;
15192;SDS011;7697;51.630;7.484;2023-05-14T21:21:58;3.33;;;2.05;;
15192;SDS011;7697;51.630;7.484;2023-05-14T21:27:00;2.00;;;1.90;;
15192;SDS011;7697;51.630;7.484;2023-05-14T21:32:01;3.40;;;1.90;;
15192;SDS011;7697;51.630;7.484;2023-05-14T21:37:05;2.40;;;1.95;;
15192;SDS011;7697;51.630;7.484;2023-05-14T21:42:07;1.83;;;1.73;;
15192;SDS011;7697;51.630;7.484;2023-05-14T21:47:09;2.45;;;1.90;;
15192;SDS011;7697;51.630;7.484;2023-05-14T21:52:13;2.20;;;2.00;;
15192;SDS011;7697;51.630;7.484;2023-05-14T21:57:14;3.25;;;1.80;;
15192;SDS011;7697;51.630;7.484;2023-05-14T22:02:16;2.10;;;1.90;;
15192;SDS011;7697;51.630;7.484;2023-05-14T22:07:19;2.13;;;1.92;;
15192;SDS011;7697;51.630;7.484;2023-05-14T22:12:24;2.00;;;1.90;;
15192;SDS011;7697;51.630;7.484;2023-05-14T22:17:26;2.30;;;2.10;;
15192;SDS011;7697;51.630;7.484;2023-05-14T22:22:29;2.80;;;1.95;;
15192;SDS011;7697;51.630;7.484;2023-05-14T22:27:31;3.08;;;2.38;;
15192;SDS011;7697;51.630;7.484;2023-05-14T22:32:33;2.30;;;2.10;;
15192;SDS011;7697;51.630;7.484;2023-05-14T22:37:36;2.17;;;2.03;;
15192;SDS011;7697;51.630;7.484;2023-05-14T22:42:37;2.17;;;2.05;;
15192;SDS011;7697;51.630;7.484;2023-05-14T22:47:39;2.33;;;2.13;;
15192;SDS011;7697;51.630;7.484;2023-05-14T22:52:42;2.20;;;2.00;;
15192;SDS011;7697;51.630;7.484;2023-05-14T22:57:44;2.65;;;2.22;;
15192;SDS011;7697;51.630;7.484;2023-05-14T23:02:45;2.50;;;2.30;;
15192;SDS011;7697;51.630;7.484;2023-05-14T23:07:49;2.45;;;2.25;;
15192;SDS011;7697;51.630;7.484;2023-05-14T23:12:50;4.63;;;2.42;;
15192;SDS011;7697;51.630;7.484;2023-05-14T23:17:52;2.40;;;2.17;;
15192;SDS011;7697;51.630;7.484;2023-05-14T23:22:55;3.65;;;2.50;;
15192;SDS011;7697;51.630;7.484;2023-05-14T23:27:57;3.03;;;2.22;;
15192;SDS011;7697;51.630;7.484;2023-05-14T23:32:58;2.95;;;2.47;;
15192;SDS011;7697;51.630;7.484;2023-05-14T23:38:02;2.90;;;2.70;;
15192;SDS011;7697;51.630;7.484;2023-05-14T23:43:04;2.53;;;2.33;;
15192;SDS011;7697;51.630;7.484;2023-05-14T23:48:06;2.50;;;2.30;;
15192;SDS011;7697;51.630;7.484;2023-05-14T23:53:09;3.60;;;2.67;;
15192;SDS011;7697;51.630;7.484;2023-05-14T23:58:10;2.92;;;2.72;;
